• Join FlightAware (Why Join?)
  • Login
  • US Flag 
06:16AM EDT


 

Airport Tracker/Info


-or-


 

Live Flight TrackerFlight Track Log ✈ VRD236 ✈ 18-May-2013 ✈ KLAX - KORD

Flight Track Log - Related Links

Times and Time Zones

All times are in EDT time to prevent confusion due to time zone crossing. See the VRD236 flight status page for this flight to view local times or setup timezone preferences in your user account.

Time Position Orientation Groundspeed Altitude Reporting Facility
EDT Latitude Longitude Course Direction KTS MPH feet Rate Location/Type
08:13PM 33.9460 -118.4460 262° West 155 178 1,100  Level FlightAware
08:13PM 33.9430 -118.4730 262° West 190 219 1,600 1,260 Climbing FlightAware
08:14PM 33.9390 -118.5220 264° West 247 284 2,400 1,980 Climbing FlightAware
08:14PM 33.9360 -118.5490 262° West 259 298 3,100 2,760 Climbing FlightAware
08:14PM 33.9240 -118.5900 251° West 268 308 4,500 2,760 Climbing FlightAware
08:15PM 33.9100 -118.6030 218° Southwest 270 311 5,200 2,580 Climbing FlightAware
08:15PM 33.8920 -118.6110 200° South 277 319 5,800 1,500 Climbing FlightAware
08:15PM 33.8740 -118.6080 172° South 290 334 6,200 1,500 Climbing FlightAware
08:16PM 33.8590 -118.5940 142° Southeast 292 336 6,800 2,580 Climbing FlightAware
08:16PM 33.8490 -118.5720 119° Southeast 291 335 7,500 2,520 Climbing FlightAware
08:16PM 33.8560 -118.5340 77° East 285 328 8,500 2,280 Climbing FlightAware
08:17PM 33.8840 -118.4960 48° Northeast 293 337 9,600 1,860 Climbing FlightAware
08:17PM 33.9220 -118.4470 47° Northeast 314 361 10,700 1,440 Climbing FlightAware
08:18PM 33.9630 -118.3790 54° Northeast 349 402 11,700 1,500 Climbing FlightAware
08:19PM 33.9990 -118.3150 56° Northeast 359 413 12,900 1,800 Climbing FlightAware
08:20PM 34.0440 -118.2370 55° Northeast 371 427 14,300 1,740 Climbing FlightAware
08:20PM 34.0830 -118.1670 56° Northeast 381 438 15,400 2,100 Climbing FlightAware
08:21PM 34.1320 -118.0810 55° Northeast 378 435 17,100 1,920 Climbing FlightAware
08:22PM 34.1760 -118.0040 55° Northeast 390 449 18,200 1,440 Climbing FlightAware
08:22PM 34.2170 -117.9290 57° Northeast 397 457 19,200 1,440 Climbing FlightAware
08:23PM 34.2650 -117.8450 55° Northeast 407 468 20,300 1,440 Climbing FlightAware
08:24PM 34.3070 -117.7690 56° Northeast 414 476 21,300 1,380 Climbing FlightAware
08:24PM 34.3510 -117.6910 56° Northeast 426 490 22,200 1,380 Climbing FlightAware
08:25PM 34.4000 -117.6030 56° Northeast 430 495 23,300 1,320 Climbing FlightAware
08:26PM 34.4480 -117.5250 53° Northeast 434 499 24,100 1,200 Climbing FlightAware
08:27PM 34.5090 -117.4390 49° Northeast 438 504 25,000 1,260 Climbing FlightAware
08:27PM 34.5610 -117.3650 50° Northeast 442 509 25,900 1,200 Climbing FlightAware
08:28PM 34.6150 -117.2890 49° Northeast 446 513 26,600 1,020 Climbing FlightAware
08:29PM 34.6730 -117.2080 49° Northeast 448 516 27,400 1,020 Climbing FlightAware
08:29PM 34.7290 -117.1280 50° Northeast 453 521 28,100 1,020 Climbing FlightAware
08:30PM 34.7850 -117.0490 49° Northeast 457 526 28,800 900 Climbing FlightAware
08:31PM 34.8470 -116.9610 49° Northeast 461 531 29,400 720 Climbing FlightAware
08:31PM 34.9020 -116.8830 49° Northeast 471 542 29,900 720 Climbing FlightAware
08:32PM 34.9640 -116.7930 50° Northeast 474 545 30,500 840 Climbing FlightAware
08:33PM 35.0230 -116.7100 49° Northeast 476 548 31,100 960 Climbing FlightAware
08:33PM 35.0800 -116.6280 50° Northeast 476 548 31,800 660 Climbing FlightAware
08:34PM 35.1400 -116.5420 50° Northeast 475 547 32,100 180 Climbing FlightAware
08:35PM 35.1890 -116.4730 49° Northeast 475 547 32,100  Level FlightAware
08:36PM 35.2380 -116.4040 49° Northeast 475 547 32,100 1,620 Level FlightAware
08:36PM 35.3170 -116.2850 51° Northeast 464 534 34,400 1,800 Climbing FlightAware
08:37PM 35.3800 -116.1940 50° Northeast 467 537 34,800 600 Climbing FlightAware
08:38PM 35.4560 -116.0820 50° Northeast 467 537 35,400 660 Climbing FlightAware
08:39PM 35.5110 -116.0030 49° Northeast 464 534 35,900 600 Climbing FlightAware
08:39PM 35.5730 -115.9110 50° Northeast 464 534 36,300 480 Climbing FlightAware
08:40PM 35.6260 -115.8330 50° Northeast 464 534 36,600 480 Climbing FlightAware
08:41PM 35.6840 -115.7480 50° Northeast 462 532 37,000 240 Climbing FlightAware
08:41PM 35.7450 -115.6570 50° Northeast 462 532 37,000  Level FlightAware
08:42PM 35.8000 -115.5760 50° Northeast 458 527 37,000  Level FlightAware
08:43PM 35.8630 -115.4840 50° Northeast 458 527 37,000  Level FlightAware
08:44PM 35.9160 -115.4050 50° Northeast 458 527 37,000  Level FlightAware
08:44PM 35.9690 -115.3250 51° Northeast 459 528 37,000  Level FlightAware
08:45PM 36.0300 -115.2340 50° Northeast 464 534 37,000  Level FlightAware
08:46PM 36.0840 -115.1520 51° Northeast 471 542 37,000 60 Level FlightAware
08:46PM 36.1410 -115.0500 55° Northeast 472 543 37,100  Climbing FlightAware
08:47PM 36.1890 -114.9630 56° Northeast 472 543 37,000 -120 Descending FlightAware
08:48PM 36.2400 -114.8710 55° Northeast 474 545 37,000  Level FlightAware
08:48PM 36.2940 -114.7740 55° Northeast 475 547 37,000 60 Level FlightAware
08:49PM 36.3440 -114.6850 55° Northeast 472 543 37,100  Climbing FlightAware
08:50PM 36.4000 -114.5830 56° Northeast 467 537 37,000 -120 Descending FlightAware
08:51PM 36.4500 -114.4920 56° Northeast 464 534 37,000  Level FlightAware
08:51PM 36.4970 -114.4060 56° Northeast 465 535 37,000  Level FlightAware
08:52PM 36.5460 -114.3160 56° Northeast 466 536 37,000  Level FlightAware
08:53PM 36.5990 -114.2190 56° Northeast 470 541 37,000  Level FlightAware
08:53PM 36.6550 -114.1150 56° Northeast 471 542 37,000 60 Level FlightAware
08:54PM 36.7040 -114.0250 56° Northeast 468 539 37,100  Climbing FlightAware
08:55PM 36.7520 -113.9360 56° Northeast 467 537 37,000 -120 Descending FlightAware
08:55PM 36.8050 -113.8380 56° Northeast 468 539 37,000  Level FlightAware
08:56PM 36.8530 -113.7490 56° Northeast 467 537 37,000  Level FlightAware
08:57PM 36.9080 -113.6460 56° Northeast 465 535 37,000  Level FlightAware
08:57PM 36.9490 -113.5690 56° Northeast 464 534 37,000 60 Level FlightAware
08:58PM 37.0030 -113.4680 56° Northeast 463 533 37,100  Climbing FlightAware
08:59PM 37.0550 -113.3700 56° Northeast 461 531 37,000 -120 Descending FlightAware
09:00PM 37.1030 -113.2800 56° Northeast 462 532 37,000  Level FlightAware
09:00PM 37.1480 -113.1940 57° Northeast 461 531 37,000  Level FlightAware
09:01PM 37.2040 -113.0890 56° Northeast 459 528 37,000  Level FlightAware
09:02PM 37.2510 -113.0000 56° Northeast 460 529 37,000  Level FlightAware
09:02PM 37.3010 -112.9030 57° Northeast 457 526 37,000  Level FlightAware
09:03PM 37.3480 -112.8140 56° Northeast 459 528 37,000  Level FlightAware
09:04PM 37.3920 -112.7300 57° Northeast 458 527 37,000  Level FlightAware
09:05PM 37.4410 -112.6370 56° Northeast 458 527 37,000  Level FlightAware
09:05PM 37.4820 -112.5620 55° Northeast 458 527 37,000  Level FlightAware
09:06PM 37.5220 -112.4870 56° Northeast 458 527 37,000  Level FlightAware
09:07PM 37.5620 -112.4120 56° Northeast 458 527 37,000  Level FlightAware
09:07PM 37.6020 -112.3360 56° Northeast 458 527 37,000  Level FlightAware
09:08PM 37.6530 -112.2420 56° Northeast 458 527 37,000  Level FlightAware
09:09PM 37.6930 -112.1670 56° Northeast 458 527 37,000  Level FlightAware
09:09PM 37.7330 -112.0910 56° Northeast 458 527 37,000  Level FlightAware
09:10PM 37.7740 -112.0150 56° Northeast 458 527 37,000  Level FlightAware
09:11PM 37.8140 -111.9400 56° Northeast 458 527 37,000  Level FlightAware
09:12PM 37.8640 -111.8450 56° Northeast 458 527 37,000  Level FlightAware
09:12PM 37.9050 -111.7700 55° Northeast 458 527 37,000  Level FlightAware
09:13PM 37.9450 -111.6940 56° Northeast 458 527 37,000  Level FlightAware
09:14PM 37.9850 -111.6180 56° Northeast 458 527 37,000  Level FlightAware
09:14PM 38.1400 -111.2669 56° Northeast 477 549 37,000  Level Salt Lake Center
09:15PM 38.2097 -111.1244 58° Northeast 475 547 37,000  Level Salt Lake Center
09:16PM 38.2803 -110.9828 58° Northeast 476 548 37,000  Level Salt Lake Center
09:17PM 38.3483 -110.8431 58° Northeast 473 544 37,000  Level Salt Lake Center
09:18PM 38.4147 -110.7100 57° Northeast 468 539 37,000  Level Salt Lake Center
09:19PM 38.5022 -110.5636 53° Northeast 465 535 37,000  Level Salt Lake Center
09:20PM 38.5794 -110.4414 51° Northeast 462 532 37,000  Level Salt Lake Center
09:21PM 38.6556 -110.3192 51° Northeast 460 529 37,000  Level Salt Lake Center
09:22PM 38.7425 -110.1728 53° Northeast 461 531 37,000  Level Salt Lake Center
09:23PM 38.8200 -110.0494 51° Northeast 464 534 37,000  Level Salt Lake Center
09:30PM 39.3070 -109.2330 51° Northeast 471 542 37,000  Level FlightAware
09:30PM 39.3550 -109.1530 52° Northeast 472 543 37,000  Level FlightAware
09:31PM 39.4140 -109.0520 53° Northeast 472 543 37,000 60 Level FlightAware
09:32PM 39.4750 -108.9500 52° Northeast 469 540 37,100 60 Climbing FlightAware
09:32PM 39.5210 -108.8710 53° Northeast 466 536 37,100  Level FlightAware
09:33PM 39.5730 -108.7850 52° Northeast 466 536 37,100  Level FlightAware
09:34PM 39.6180 -108.7100 52° Northeast 466 536 37,100 -120 Level FlightAware
09:34PM 39.6770 -108.6040 54° Northeast 464 534 37,000 -120 Descending FlightAware
09:35PM 39.7440 -108.4870 53° Northeast 463 533 37,000  Level FlightAware
09:36PM 39.7960 -108.3980 53° Northeast 464 534 37,000  Level FlightAware
09:37PM 39.8540 -108.2970 53° Northeast 465 535 37,000  Level FlightAware
09:37PM 39.9050 -108.2080 53° Northeast 467 537 37,000  Level FlightAware
09:38PM 39.9520 -108.1270 53° Northeast 468 539 37,000  Level FlightAware
09:39PM 40.0060 -108.0330 53° Northeast 471 542 37,000  Level FlightAware
09:39PM 40.0620 -107.9360 53° Northeast 471 542 37,000 60 Level FlightAware
09:40PM 40.1060 -107.8370 60° Northeast 471 542 37,100 60 Climbing FlightAware
09:41PM 40.1500 -107.7380 60° Northeast 464 534 37,100 -120 Level FlightAware
09:41PM 40.2000 -107.6240 60° Northeast 464 534 37,000 -120 Descending FlightAware
09:42PM 40.2500 -107.5100 60° Northeast 462 532 37,000  Level FlightAware
09:43PM 40.2920 -107.4140 60° Northeast 459 528 37,000 60 Level FlightAware
09:43PM 40.3330 -107.3180 61° Northeast 452 520 37,100  Climbing FlightAware
09:44PM 40.3790 -107.2120 60° Northeast 450 518 37,000 -120 Descending FlightAware
09:45PM 40.4173 -107.1230 61° Northeast 450 518 37,000  Level FlightAware ADS-B
09:46PM 40.4670 -107.0070 61° Northeast 454 522 37,000  Level FlightAware
09:46PM 40.5020 -106.9260 60° Northeast 454 522 37,000 60 Level FlightAware
09:47PM 40.5550 -106.8010 61° Northeast 452 520 37,100  Climbing FlightAware
09:48PM 40.5920 -106.7140 61° Northeast 452 520 37,000  Descending FlightAware
09:49PM 40.6510 -106.5760 61° Northeast 449 517 37,100 60 Climbing FlightAware
09:49PM 40.6890 -106.4890 60° Northeast 449 517 37,100 -120 Level FlightAware
09:50PM 40.7370 -106.3720 62° Northeast 442 509 37,000 -120 Descending FlightAware
09:51PM 40.7760 -106.2780 61° Northeast 441 507 37,000  Level FlightAware
09:51PM 40.8210 -106.1720 61° Northeast 437 503 37,000  Level FlightAware
09:52PM 40.8610 -106.0770 61° Northeast 435 501 37,000  Level FlightAware
09:53PM 40.9030 -105.9740 62° Northeast 432 497 37,000 60 Level FlightAware
09:54PM 40.9400 -105.8840 61° Northeast 421 484 37,100  Climbing FlightAware
09:54PM 40.9780 -105.7930 61° Northeast 426 490 37,000 -120 Descending FlightAware
09:55PM 41.0210 -105.6880 61° Northeast 411 473 37,000  Level FlightAware
09:55PM 41.0266 -105.6750 60° Northeast 409 471 37,000  Level FlightAware ADS-B
09:56PM 41.0560 -105.6030 62° Northeast 406 467 37,000  Level FlightAware
09:56PM 41.0632 -105.5850 62° Northeast 407 468 37,000  Level FlightAware ADS-B
09:56PM 41.0970 -105.5030 61° Northeast 406 467 37,000  Level FlightAware
09:57PM 41.1320 -105.4170 62° Northeast 400 460 37,000  Level FlightAware
09:58PM 41.1680 -105.3290 61° Northeast 402 463 37,000  Level FlightAware
09:58PM 41.2070 -105.2330 62° Northeast 397 457 37,000  Level FlightAware
09:59PM 41.2207 -105.1990 62° Northeast 399 459 37,000  Level FlightAware ADS-B
09:59PM 41.2393 -105.1520 62° Northeast 398 458 37,000  Level FlightAware ADS-B
10:00PM 41.2683 -105.0810 61° Northeast 398 458 37,000  Level FlightAware ADS-B
10:00PM 41.2927 -105.0200 62° Northeast 395 455 37,000  Level FlightAware ADS-B
10:01PM 41.3185 -104.9550 62° Northeast 393 452 37,000  Level FlightAware ADS-B
10:01PM 41.3451 -104.8910 61° Northeast 395 455 37,000  Level FlightAware ADS-B
10:02PM 41.3769 -104.8160 61° Northeast 395 455 37,000  Level FlightAware ADS-B
10:02PM 41.4112 -104.7340 61° Northeast 396 456 37,000  Level FlightAware ADS-B
10:03PM 41.4381 -104.6700 61° Northeast 395 455 37,000  Level FlightAware ADS-B
10:03PM 41.4636 -104.6080 61° Northeast 390 449 37,000  Level FlightAware ADS-B
10:04PM 41.4912 -104.5420 61° Northeast 393 452 37,000  Level FlightAware ADS-B
10:04PM 41.5180 -104.4770 61° Northeast 397 457 37,000  Level FlightAware ADS-B
10:05PM 41.5450 -104.4120 61° Northeast 398 458 37,000  Level FlightAware ADS-B
10:05PM 41.5755 -104.3380 61° Northeast 401 461 37,000  Level FlightAware ADS-B
10:06PM 41.6021 -104.2730 61° Northeast 398 458 37,000  Level FlightAware ADS-B
10:06PM 41.6289 -104.2080 61° Northeast 401 461 37,000  Level FlightAware ADS-B
10:07PM 41.6553 -104.1430 61° Northeast 401 461 37,000  Level FlightAware ADS-B
10:07PM 41.6828 -104.0750 62° Northeast 402 463 37,000  Level FlightAware ADS-B
10:08PM 41.7098 -104.0090 61° Northeast 402 463 37,000  Level FlightAware ADS-B
10:08PM 41.7366 -103.9430 61° Northeast 404 465 37,000  Level FlightAware ADS-B
10:09PM 41.7638 -103.8760 61° Northeast 408 470 37,000  Level FlightAware ADS-B
10:09PM 41.7915 -103.8080 61° Northeast 409 471 37,000  Level FlightAware ADS-B
10:10PM 41.8192 -103.7400 61° Northeast 411 473 37,000  Level FlightAware ADS-B
10:10PM 41.8274 -103.7200 61° Northeast 414 476 37,000  Level FlightAware ADS-B
10:10PM 41.8351 -103.7030 59° Northeast 420 483 37,000  Level FlightAware ADS-B
10:10PM 41.8423 -103.6900 53° Northeast 425 489 37,000  Level FlightAware ADS-B
10:10PM 41.8506 -103.6770 49° Northeast 432 497 37,000  Level FlightAware ADS-B
10:11PM 41.8604 -103.6640 45° Northeast 439 505 37,000  Level FlightAware ADS-B
10:11PM 41.8717 -103.6520 38° Northeast 444 511 37,000  Level FlightAware ADS-B
10:11PM 41.9203 -103.6030 37° Northeast 450 518 37,000  Level FlightAware ADS-B
10:12PM 41.9703 -103.5530 37° Northeast 445 512 37,000  Level FlightAware ADS-B
10:12PM 42.0202 -103.5040 36° Northeast 443 510 37,000  Level FlightAware ADS-B
10:13PM 42.0711 -103.4530 37° Northeast 445 512 37,000  Level FlightAware ADS-B
10:13PM 42.1207 -103.4030 37° Northeast 447 514 37,000  Level FlightAware ADS-B
10:14PM 42.1701 -103.3520 37° Northeast 447 514 37,000  Level FlightAware ADS-B
10:14PM 42.2189 -103.3010 38° Northeast 445 512 37,000  Level FlightAware ADS-B
10:15PM 42.2673 -103.2480 39° Northeast 445 512 37,000  Level FlightAware ADS-B
10:15PM 42.3215 -103.1900 38° Northeast 448 516 37,000  Level FlightAware ADS-B
10:16PM 42.3721 -103.1380 37° Northeast 456 525 37,000  Level FlightAware ADS-B
10:16PM 42.4233 -103.0850 37° Northeast 455 524 37,000  Level FlightAware ADS-B
10:17PM 42.4731 -103.0340 37° Northeast 456 525 37,000  Level FlightAware ADS-B
10:17PM 42.5241 -102.9800 38° Northeast 462 532 37,000  Level FlightAware ADS-B
10:18PM 42.5720 -102.9280 39° Northeast 461 531 37,000  Level FlightAware
10:18PM 42.6223 -102.8760 37° Northeast 461 531 37,000  Level FlightAware ADS-B
10:19PM 42.6743 -102.8210 38° Northeast 464 534 37,000  Level FlightAware ADS-B
10:19PM 42.7254 -102.7670 38° Northeast 461 531 37,000  Level FlightAware ADS-B
10:20PM 42.7764 -102.7130 38° Northeast 464 534 37,000  Level FlightAware ADS-B
10:21PM 42.8392 -102.6453 38° Northeast 462 532 37,000  Level Denver Center
10:22PM 42.9528 -102.5219 38° Northeast 467 537 37,000  Level Denver Center
10:23PM 43.0497 -102.4142 39° Northeast 469 540 37,000  Level Denver Center
10:24PM 43.1453 -102.3047 40° Northeast 469 540 37,000  Level Denver Center
10:25PM 43.2522 -102.1728 42° Northeast 465 535 37,000  Level Denver Center
10:26PM 43.3194 -102.0356 56° Northeast 454 522 37,000  Level Denver Center
10:27PM 43.3794 -101.9058 57° Northeast 453 521 37,000  Level Denver Center
10:28PM 43.4481 -101.7575 57° Northeast 460 529 37,000  Level Denver Center
10:29PM 43.5367 -101.5828 55° Northeast 464 534 37,000  Level Denver Center
10:30PM 43.6308 -101.4536 45° Northeast 479 551 37,100  Climbing Denver Center
10:31PM 43.7228 -101.3214 46° Northeast 478 550 37,000 -60 Descending Denver Center
10:31PM 43.7639 -101.2325 57° Northeast 469 540 37,000  Level Minneapolis Center
10:32PM 43.8150 -101.0692 67° East 468 539 37,000  Level Minneapolis Center
10:33PM 43.8206 -100.8933 87° East 464 534 37,000  Level Minneapolis Center
10:34PM 43.8211 -100.6806 90° East 463 533 37,000  Level Minneapolis Center
10:35PM 43.8231 -100.6083 88° East 464 534 37,000  Level Denver Center
10:36PM 43.8364 -100.4272 84° East 472 543 37,000  Level Denver Center
10:36PM 43.8456 -100.3175 83° East 477 549 37,000  Level Minneapolis Center
10:37PM 43.8600 -100.1292 84° East 487 560 37,000  Level Minneapolis Center
10:38PM 43.8747 -99.9372 84° East 497 572 37,000  Level Minneapolis Center
10:39PM 43.8883 -99.7431 84° East 505 581 37,000  Level Minneapolis Center
10:40PM 43.9028 -99.5500 84° East 507 583 37,000  Level Minneapolis Center
10:41PM 43.8850 -99.3600 97° East 501 577 37,000  Level Minneapolis Center
10:42PM 43.8647 -99.1714 98° East 499 574 37,000  Level Minneapolis Center
10:48PM 43.7500 -98.1140 98° East 489 563 37,000  Level FlightAware
10:49PM 43.7350 -97.9910 100° East 490 564 37,000  Level FlightAware
10:50PM 43.7190 -97.8540 99° East 493 567 37,000  Level FlightAware
10:50PM 43.7060 -97.7360 99° East 491 565 37,000  Level FlightAware
10:51PM 43.6900 -97.6060 100° East 489 563 37,000  Level FlightAware
10:52PM 43.6740 -97.4660 99° East 478 550 37,000  Level FlightAware
10:52PM 43.6600 -97.3520 100° East 478 550 37,000  Level FlightAware
10:53PM 43.6440 -97.2210 100° East 476 548 37,000  Level FlightAware
10:54PM 43.6280 -97.0980 100° East 477 549 37,000  Level FlightAware
10:54PM 43.6140 -96.9860 100° East 481 554 37,000  Level FlightAware
10:55PM 43.5950 -96.8360 100° East 483 556 37,000  Level FlightAware
10:56PM 43.5800 -96.7160 100° East 486 559 37,000  Level FlightAware
10:56PM 43.5640 -96.5910 100° East 488 562 37,000  Level FlightAware
10:57PM 43.5470 -96.4610 100° East 489 563 37,000  Level FlightAware
10:58PM 43.5310 -96.3360 100° East 489 563 37,000  Level FlightAware
10:59PM 43.5130 -96.1950 100° East 491 565 37,000  Level FlightAware
10:59PM 43.4970 -96.0780 101° East 492 566 37,000  Level FlightAware
11:00PM 43.4770 -95.9320 101° East 492 566 37,000  Level FlightAware
11:01PM 43.4610 -95.8120 100° East 489 563 37,000  Level FlightAware
11:01PM 43.4440 -95.6870 101° East 488 562 37,000  Level FlightAware
11:02PM 43.4260 -95.5550 101° East 485 558 37,000  Level FlightAware
11:03PM 43.4060 -95.4160 101° East 484 557 37,000  Level FlightAware
11:04PM 43.3890 -95.2950 101° East 485 558 37,000  Level FlightAware
11:04PM 43.3730 -95.1760 100° East 485 558 37,000  Level FlightAware
11:05PM 43.3540 -95.0420 101° East 488 562 37,000  Level FlightAware
11:06PM 43.3360 -94.9180 101° East 490 564 37,000  Level FlightAware
11:06PM 43.3160 -94.7790 101° East 493 567 37,000  Level FlightAware
11:07PM 43.2980 -94.6580 102° East 494 568 37,000  Level FlightAware
11:08PM 43.2800 -94.5370 102° East 494 568 37,000 60 Level FlightAware
11:08PM 43.2590 -94.3980 102° East 493 567 37,100 60 Climbing FlightAware
11:09PM 43.2410 -94.2780 102° East 486 559 37,100  Level FlightAware
11:10PM 43.2210 -94.1410 101° East 480 552 37,100 -120 Level FlightAware
11:11PM 43.2030 -94.0210 102° East 473 544 37,000 -120 Descending FlightAware
11:11PM 43.1860 -93.9130 102° East 468 539 37,000  Level FlightAware
11:12PM 43.1660 -93.7840 102° East 465 535 37,000  Level FlightAware
11:13PM 43.1480 -93.6670 102° East 466 536 37,000  Level FlightAware
11:13PM 43.1290 -93.5500 103° East 465 535 37,000  Level FlightAware
11:14PM 43.1080 -93.4170 102° East 465 535 37,000  Level FlightAware
11:15PM 43.0920 -93.3020 101° East 466 536 37,000  Level FlightAware
11:15PM 43.0850 -93.1750 94° East 465 535 37,000  Level FlightAware
11:16PM 43.0770 -93.0570 95° East 464 534 37,000  Level FlightAware
11:17PM 43.0690 -92.9410 95° East 463 533 37,000  Level FlightAware
11:18PM 43.0600 -92.8100 95° East 460 529 37,000 60 Level FlightAware
11:18PM 43.0520 -92.6930 95° East 457 526 37,100  Climbing FlightAware
11:19PM 43.0430 -92.5670 96° East 453 521 37,000 -120 Descending FlightAware
11:20PM 43.0350 -92.4600 96° East 452 520 37,000  Level FlightAware
11:20PM 43.0250 -92.3220 96° East 451 519 37,000  Level FlightAware
11:21PM 43.0170 -92.2110 96° East 452 520 37,000  Level FlightAware
11:22PM 43.0090 -92.1050 96° East 451 519 37,000  Level FlightAware
11:22PM 42.9990 -91.9740 96° East 450 518 37,000  Level FlightAware
11:23PM 42.9910 -91.8600 95° East 449 517 37,000  Level FlightAware
11:24PM 42.9810 -91.7330 96° East 450 518 37,000  Level FlightAware
11:25PM 42.9720 -91.6170 96° East 451 519 37,000  Level FlightAware
11:25PM 42.9630 -91.5090 96° East 451 519 37,000  Level FlightAware
11:26PM 42.9460 -91.3870 101° East 450 518 37,000  Level FlightAware
11:27PM 42.9250 -91.2700 104° East 451 519 37,000  Level FlightAware
11:27PM 42.9010 -91.1430 104° East 451 519 37,000  Level FlightAware
11:28PM 42.8810 -91.0340 104° East 452 520 37,000  Level FlightAware
11:29PM 42.8600 -90.9240 105° East 451 519 37,000  Level FlightAware
11:29PM 42.8370 -90.8020 104° East 451 519 37,000  Level FlightAware
11:30PM 42.8160 -90.6900 104° East 450 518 37,000 -420 Level FlightAware
11:31PM 42.7950 -90.5830 105° East 449 517 36,500 -900 Descending FlightAware
11:32PM 42.7710 -90.4580 105° East 452 520 35,800 -1,740 Descending FlightAware
11:32PM 42.7500 -90.3490 105° East 465 535 34,100 -2,880 Descending FlightAware
11:33PM 42.7270 -90.2290 105° East 471 542 31,800 -3,000 Descending FlightAware
11:34PM 42.7040 -90.1100 105° East 462 532 29,900 -2,580 Descending FlightAware
11:34PM 42.6820 -89.9980 105° East 451 519 28,400 -2,280 Descending FlightAware
11:35PM 42.6570 -89.8740 105° East 443 510 26,700 -2,280 Descending FlightAware
11:36PM 42.6360 -89.7680 105° East 434 499 25,200 -2,160 Descending FlightAware
11:36PM 42.6130 -89.6520 105° East 425 489 23,700 -2,100 Descending FlightAware
11:37PM 42.5930 -89.5530 105° East 418 481 22,300 -2,040 Descending FlightAware
11:38PM 42.5720 -89.4520 106° East 412 474 21,000 -2,100 Descending FlightAware
11:39PM 42.5490 -89.3370 105° East 405 466 19,400 -2,100 Descending FlightAware
11:39PM 42.5290 -89.2390 105° East 400 460 18,100 -1,920 Descending FlightAware
11:40PM 42.5080 -89.1350 105° East 393 452 16,700 -1,860 Descending FlightAware
11:41PM 42.4880 -89.0400 106° East 385 443 15,500 -1,920 Descending FlightAware
11:41PM 42.4690 -88.9490 106° East 372 428 14,200 -1,860 Descending FlightAware
11:42PM 42.4490 -88.8510 105° East 359 413 12,900 -1,740 Descending FlightAware
11:43PM 42.4310 -88.7640 106° East 348 400 11,800 -1,740 Descending FlightAware
11:43PM 42.4110 -88.6710 106° East 335 386 10,500 -1,320 Descending FlightAware
11:44PM 42.3950 -88.5960 106° East 300 345 10,000 -780 Descending FlightAware
11:45PM 42.3860 -88.5530 106° East 299 344 9,700 -1,140 Descending FlightAware
11:45PM 42.3750 -88.4990 105° East 294 338 9,000 -840 Descending FlightAware
11:46PM 42.3540 -88.4530 122° Southeast 293 337 8,900  Descending FlightAware
11:46PM 42.3240 -88.4260 146° Southeast 290 334 9,000 60 Climbing FlightAware
11:46PM 42.2930 -88.3980 146° Southeast 288 331 9,000 -240 Level FlightAware
11:47PM 42.2600 -88.3700 148° Southeast 286 329 8,800 -780 Descending FlightAware
11:47PM 42.2320 -88.3450 147° Southeast 281 323 8,300 -1,560 Descending FlightAware
11:48PM 42.1990 -88.3160 147° Southeast 276 318 7,400 -1,560 Descending FlightAware
11:48PM 42.1710 -88.2920 148° Southeast 269 310 6,900 -1,680 Descending FlightAware
11:49PM 42.1550 -88.2850 162° South 265 305 6,300 -2,580 Descending FlightAware
11:49PM 42.1190 -88.2820 176° South 267 307 5,000 -2,400 Descending FlightAware
11:49PM 42.0870 -88.2810 179° South 260 299 4,100 -1,140 Descending FlightAware
11:50PM 42.0520 -88.2790 178° South 226 260 4,000 -180 Descending FlightAware
11:50PM 42.0390 -88.2790 180° South 220 253 4,000  Level FlightAware
11:51PM 42.0130 -88.2760 175° South 219 252 4,000  Level FlightAware
11:51PM 42.0010 -88.2650 146° Southeast 220 253 4,000  Level FlightAware
11:51PM 41.9920 -88.2470 124° Southeast 220 253 4,000  Level FlightAware
11:52PM 41.9810 -88.2160 116° Southeast 220 253 4,000  Level FlightAware
11:52PM 41.9710 -88.1820 112° Southeast 196 226 4,000 -300 Level FlightAware
11:53PM 41.9680 -88.1460 96° East 193 222 3,700 -840 Descending FlightAware
11:53PM 41.9680 -88.1220 90° East 189 217 3,300 -1,140 Descending FlightAware
11:53PM 41.9690 -88.0800 88° East 187 215 2,700 -1,020 Descending FlightAware
11:54PM 41.9690 -88.0520 90° East 185 213 2,300 -900 Descending FlightAware
11:54PM 41.9690 -88.0190 90° East 165 190 1,900 -900 Descending FlightAware
11:55PM 41.9690 -87.9950 90° East 142 163 1,500 -720 Descending FlightAware
11:55PM 41.9690 -87.9670 90° East 130 150 1,200 -600 Descending FlightAware
11:56PM 41.9690 -87.9490 90° East 131 151 900 -720 Descending FlightAware
11:56PM 41.9690 -87.9260 90° East 134 154 600 -360 Descending FlightAware
11:57PM 41.9690 -87.9070 90° East 134 154 600  Level FlightAware